KPOC/POC METAR and TAF weather

Enter ICAO airport designator
Station Type Date Time Source
KPOC METAR 2020/09/19 21:47 UTC NOAA

KPOC 192147Z 26010KT 10SM CLR 33/13 A2985


Station Type Date Time Source
KPOC Decoded METAR 2020/09/19 21:47 UTC NOAA

La Verne / Brackett, CA, United States (KPOC) 34-06N 117-47W
Sep 19, 2020 - 05:47 PM EDT / 2020.09.19 2147 UTC
Wind: from the W (260 degrees) at 12 MPH (10 KT):0
Visibility: 10 mile(s):0
Sky conditions: clear
Temperature: 91 F (33 C)
Dew Point: 55 F (13 C)
Relative Humidity: 29%
Pressure (altimeter): 29.85 in. Hg (1010 hPa)
ob: KPOC 192147Z 26010KT 10SM CLR 33/13 A2985
cycle: 22

Station Type Date Time Source
KPOC TAF UTC NOAA

Error!

Example: see airport list